sensor_id;sensor_type;location;lat;lon;timestamp;temperature;humidity
36132;DHT22;22185;48.738;9.324;2022-10-16T00:01:44;15.40;99.90
36132;DHT22;22185;48.738;9.324;2022-10-16T00:03:46;15.40;99.90
36132;DHT22;22185;48.738;9.324;2022-10-16T00:05:48;15.40;99.90
36132;DHT22;22185;48.738;9.324;2022-10-16T00:07:50;15.40;99.90
36132;DHT22;22185;48.738;9.324;2022-10-16T00:09:51;15.40;99.90
36132;DHT22;22185;48.738;9.324;2022-10-16T00:11:53;15.40;99.90
36132;DHT22;22185;48.738;9.324;2022-10-16T00:13:56;15.40;99.90
36132;DHT22;22185;48.738;9.324;2022-10-16T00:15:58;15.40;99.90
36132;DHT22;22185;48.738;9.324;2022-10-16T00:18:00;15.30;99.90
36132;DHT22;22185;48.738;9.324;2022-10-16T00:20:02;15.20;99.90
36132;DHT22;22185;48.738;9.324;2022-10-16T00:22:04;15.20;99.90
36132;DHT22;22185;48.738;9.324;2022-10-16T00:24:06;15.20;99.90
36132;DHT22;22185;48.738;9.324;2022-10-16T00:26:10;15.10;99.90
36132;DHT22;22185;48.738;9.324;2022-10-16T00:28:13;15.10;99.90
36132;DHT22;22185;48.738;9.324;2022-10-16T00:30:14;15.10;99.90
36132;DHT22;22185;48.738;9.324;2022-10-16T00:32:17;15.10;99.90
36132;DHT22;22185;48.738;9.324;2022-10-16T00:34:18;15.10;99.90
36132;DHT22;22185;48.738;9.324;2022-10-16T00:36:21;15.10;99.90
36132;DHT22;22185;48.738;9.324;2022-10-16T00:38:23;15.00;99.90
36132;DHT22;22185;48.738;9.324;2022-10-16T00:40:24;15.00;99.90
36132;DHT22;22185;48.738;9.324;2022-10-16T00:42:26;15.00;99.90
36132;DHT22;22185;48.738;9.324;2022-10-16T00:46:49;14.90;99.90
36132;DHT22;22185;48.738;9.324;2022-10-16T00:50:56;14.90;99.90
36132;DHT22;22185;48.738;9.324;2022-10-16T00:52:58;14.90;99.90
36132;DHT22;22185;48.738;9.324;2022-10-16T00:55:03;14.90;99.90
36132;DHT22;22185;48.738;9.324;2022-10-16T00:57:05;14.80;99.90
36132;DHT22;22185;48.738;9.324;2022-10-16T00:59:11;14.80;99.90
36132;DHT22;22185;48.738;9.324;2022-10-16T01:01:13;14.80;99.90
36132;DHT22;22185;48.738;9.324;2022-10-16T01:03:23;14.80;99.90
36132;DHT22;22185;48.738;9.324;2022-10-16T01:05:27;14.80;99.90
36132;DHT22;22185;48.738;9.324;2022-10-16T01:07:45;14.80;99.90
36132;DHT22;22185;48.738;9.324;2022-10-16T01:11:55;14.70;99.90
36132;DHT22;22185;48.738;9.324;2022-10-16T01:14:02;14.80;99.90
36132;DHT22;22185;48.738;9.324;2022-10-16T01:16:12;14.80;99.90
36132;DHT22;22185;48.738;9.324;2022-10-16T01:18:18;14.80;99.90
36132;DHT22;22185;48.738;9.324;2022-10-16T01:20:27;14.80;99.90
36132;DHT22;22185;48.738;9.324;2022-10-16T01:22:36;14.80;99.90
36132;DHT22;22185;48.738;9.324;2022-10-16T01:24:40;14.70;99.90
36132;DHT22;22185;48.738;9.324;2022-10-16T01:26:50;14.70;99.90
36132;DHT22;22185;48.738;9.324;2022-10-16T01:28:59;14.70;99.90
36132;DHT22;22185;48.738;9.324;2022-10-16T01:31:04;14.70;99.90
36132;DHT22;22185;48.738;9.324;2022-10-16T01:33:26;14.70;99.90
36132;DHT22;22185;48.738;9.324;2022-10-16T01:35:31;14.70;99.90
36132;DHT22;22185;48.738;9.324;2022-10-16T01:37:39;14.70;99.90
36132;DHT22;22185;48.738;9.324;2022-10-16T01:39:42;14.70;99.90
36132;DHT22;22185;48.738;9.324;2022-10-16T01:41:47;14.70;99.90
36132;DHT22;22185;48.738;9.324;2022-10-16T01:43:54;14.60;99.90
36132;DHT22;22185;48.738;9.324;2022-10-16T01:45:59;14.60;99.90
36132;DHT22;22185;48.738;9.324;2022-10-16T01:48:02;14.60;99.90
36132;DHT22;22185;48.738;9.324;2022-10-16T01:50:07;14.60;99.90
36132;DHT22;22185;48.738;9.324;2022-10-16T01:52:11;14.60;99.90
36132;DHT22;22185;48.738;9.324;2022-10-16T01:54:14;14.60;99.90
36132;DHT22;22185;48.738;9.324;2022-10-16T01:56:19;14.60;99.90
36132;DHT22;22185;48.738;9.324;2022-10-16T01:58:24;14.60;99.90
36132;DHT22;22185;48.738;9.324;2022-10-16T02:00:27;14.60;99.90
36132;DHT22;22185;48.738;9.324;2022-10-16T02:02:29;14.60;99.90
36132;DHT22;22185;48.738;9.324;2022-10-16T02:06:34;14.60;99.90
36132;DHT22;22185;48.738;9.324;2022-10-16T02:08:37;14.60;99.90
36132;DHT22;22185;48.738;9.324;2022-10-16T02:10:40;14.60;99.90
36132;DHT22;22185;48.738;9.324;2022-10-16T02:12:44;14.60;99.90
36132;DHT22;22185;48.738;9.324;2022-10-16T02:14:47;14.60;99.90
36132;DHT22;22185;48.738;9.324;2022-10-16T02:16:50;14.60;99.90
36132;DHT22;22185;48.738;9.324;2022-10-16T02:18:52;14.60;99.90
36132;DHT22;22185;48.738;9.324;2022-10-16T02:22:56;14.70;99.90
36132;DHT22;22185;48.738;9.324;2022-10-16T02:24:59;14.70;99.90
36132;DHT22;22185;48.738;9.324;2022-10-16T02:27:13;14.70;99.90
36132;DHT22;22185;48.738;9.324;2022-10-16T02:29:23;14.70;99.90
36132;DHT22;22185;48.738;9.324;2022-10-16T02:31:27;14.70;99.90
36132;DHT22;22185;48.738;9.324;2022-10-16T02:33:30;14.70;99.90
36132;DHT22;22185;48.738;9.324;2022-10-16T02:35:33;14.60;99.90
36132;DHT22;22185;48.738;9.324;2022-10-16T02:37:37;14.70;99.90
36132;DHT22;22185;48.738;9.324;2022-10-16T02:39:40;14.70;99.90
36132;DHT22;22185;48.738;9.324;2022-10-16T02:41:52;14.70;99.90
36132;DHT22;22185;48.738;9.324;2022-10-16T02:43:53;14.60;99.90
36132;DHT22;22185;48.738;9.324;2022-10-16T02:45:56;14.60;99.90
36132;DHT22;22185;48.738;9.324;2022-10-16T02:47:58;14.60;99.90
36132;DHT22;22185;48.738;9.324;2022-10-16T02:50:04;14.60;99.90
36132;DHT22;22185;48.738;9.324;2022-10-16T02:52:06;14.60;99.90
36132;DHT22;22185;48.738;9.324;2022-10-16T02:54:08;14.60;99.90
36132;DHT22;22185;48.738;9.324;2022-10-16T02:56:12;14.60;99.90
36132;DHT22;22185;48.738;9.324;2022-10-16T02:58:14;14.60;99.90
36132;DHT22;22185;48.738;9.324;2022-10-16T03:00:17;14.70;99.90
36132;DHT22;22185;48.738;9.324;2022-10-16T03:02:19;14.70;99.90
36132;DHT22;22185;48.738;9.324;2022-10-16T03:04:21;14.70;99.90
36132;DHT22;22185;48.738;9.324;2022-10-16T03:06:22;14.70;99.90
36132;DHT22;22185;48.738;9.324;2022-10-16T03:08:25;14.60;99.90
36132;DHT22;22185;48.738;9.324;2022-10-16T03:10:27;14.50;99.90
36132;DHT22;22185;48.738;9.324;2022-10-16T03:12:29;14.60;99.90
36132;DHT22;22185;48.738;9.324;2022-10-16T03:14:32;14.60;99.90
36132;DHT22;22185;48.738;9.324;2022-10-16T03:16:34;14.50;99.90
36132;DHT22;22185;48.738;9.324;2022-10-16T03:18:37;14.50;99.90
36132;DHT22;22185;48.738;9.324;2022-10-16T03:20:39;14.50;99.90
36132;DHT22;22185;48.738;9.324;2022-10-16T03:22:41;14.60;99.90
36132;DHT22;22185;48.738;9.324;2022-10-16T03:24:43;14.60;99.90
36132;DHT22;22185;48.738;9.324;2022-10-16T03:26:46;14.60;99.90
36132;DHT22;22185;48.738;9.324;2022-10-16T03:28:48;14.50;99.90
36132;DHT22;22185;48.738;9.324;2022-10-16T03:30:50;14.50;99.90
36132;DHT22;22185;48.738;9.324;2022-10-16T03:32:52;14.50;99.90
36132;DHT22;22185;48.738;9.324;2022-10-16T03:34:55;14.40;99.90
36132;DHT22;22185;48.738;9.324;2022-10-16T03:36:58;14.50;99.90
36132;DHT22;22185;48.738;9.324;2022-10-16T03:39:00;14.50;99.90
36132;DHT22;22185;48.738;9.324;2022-10-16T03:41:02;14.50;99.90
36132;DHT22;22185;48.738;9.324;2022-10-16T03:43:05;14.50;99.90
36132;DHT22;22185;48.738;9.324;2022-10-16T03:45:08;14.50;99.90
36132;DHT22;22185;48.738;9.324;2022-10-16T03:47:10;14.40;99.90
36132;DHT22;22185;48.738;9.324;2022-10-16T03:49:12;14.50;99.90
36132;DHT22;22185;48.738;9.324;2022-10-16T03:51:14;14.40;99.90
36132;DHT22;22185;48.738;9.324;2022-10-16T03:53:15;14.50;99.90
36132;DHT22;22185;48.738;9.324;2022-10-16T03:55:17;14.40;99.90
36132;DHT22;22185;48.738;9.324;2022-10-16T03:57:19;14.40;99.90
36132;DHT22;22185;48.738;9.324;2022-10-16T03:59:22;14.40;99.90
36132;DHT22;22185;48.738;9.324;2022-10-16T04:01:24;14.40;99.90
36132;DHT22;22185;48.738;9.324;2022-10-16T04:03:26;14.40;99.90
36132;DHT22;22185;48.738;9.324;2022-10-16T04:05:27;14.30;99.90
36132;DHT22;22185;48.738;9.324;2022-10-16T04:07:29;14.20;99.90
36132;DHT22;22185;48.738;9.324;2022-10-16T04:09:31;14.30;99.90
36132;DHT22;22185;48.738;9.324;2022-10-16T04:11:33;14.30;99.90
36132;DHT22;22185;48.738;9.324;2022-10-16T04:13:36;14.30;99.90
36132;DHT22;22185;48.738;9.324;2022-10-16T04:15:38;14.20;99.90
36132;DHT22;22185;48.738;9.324;2022-10-16T04:17:41;14.20;99.90
36132;DHT22;22185;48.738;9.324;2022-10-16T04:19:43;14.20;99.90
36132;DHT22;22185;48.738;9.324;2022-10-16T04:21:45;14.20;99.90
36132;DHT22;22185;48.738;9.324;2022-10-16T04:23:47;14.20;99.90
36132;DHT22;22185;48.738;9.324;2022-10-16T04:25:49;14.30;99.90
36132;DHT22;22185;48.738;9.324;2022-10-16T04:27:52;14.30;99.90
36132;DHT22;22185;48.738;9.324;2022-10-16T04:29:54;14.30;99.90
36132;DHT22;22185;48.738;9.324;2022-10-16T04:31:56;14.20;99.90
36132;DHT22;22185;48.738;9.324;2022-10-16T04:33:58;14.20;99.90
36132;DHT22;22185;48.738;9.324;2022-10-16T04:36:02;14.10;99.90
36132;DHT22;22185;48.738;9.324;2022-10-16T04:38:04;14.10;99.90
36132;DHT22;22185;48.738;9.324;2022-10-16T04:40:08;14.10;99.90
36132;DHT22;22185;48.738;9.324;2022-10-16T04:42:09;14.20;99.90
36132;DHT22;22185;48.738;9.324;2022-10-16T04:44:11;14.20;99.90
36132;DHT22;22185;48.738;9.324;2022-10-16T04:46:13;14.20;99.90
36132;DHT22;22185;48.738;9.324;2022-10-16T04:48:15;14.20;99.90
36132;DHT22;22185;48.738;9.324;2022-10-16T04:50:18;14.20;99.90
36132;DHT22;22185;48.738;9.324;2022-10-16T04:52:20;14.20;99.90
36132;DHT22;22185;48.738;9.324;2022-10-16T04:54:23;14.20;99.90
36132;DHT22;22185;48.738;9.324;2022-10-16T04:56:30;14.20;99.90
36132;DHT22;22185;48.738;9.324;2022-10-16T04:58:32;14.20;99.90
36132;DHT22;22185;48.738;9.324;2022-10-16T05:00:34;14.30;99.90
36132;DHT22;22185;48.738;9.324;2022-10-16T05:02:36;14.20;99.90
36132;DHT22;22185;48.738;9.324;2022-10-16T05:04:38;14.20;99.90
36132;DHT22;22185;48.738;9.324;2022-10-16T05:06:40;14.20;99.90
36132;DHT22;22185;48.738;9.324;2022-10-16T05:08:48;14.20;99.90
36132;DHT22;22185;48.738;9.324;2022-10-16T05:10:49;14.20;99.90
36132;DHT22;22185;48.738;9.324;2022-10-16T05:12:51;14.30;99.90
36132;DHT22;22185;48.738;9.324;2022-10-16T05:14:53;14.30;99.90
36132;DHT22;22185;48.738;9.324;2022-10-16T05:17:00;14.30;99.90
36132;DHT22;22185;48.738;9.324;2022-10-16T05:19:02;14.30;99.90
36132;DHT22;22185;48.738;9.324;2022-10-16T05:21:23;14.20;99.90
36132;DHT22;22185;48.738;9.324;2022-10-16T05:23:25;14.20;99.90
36132;DHT22;22185;48.738;9.324;2022-10-16T05:25:27;14.10;99.90
36132;DHT22;22185;48.738;9.324;2022-10-16T05:27:34;14.10;99.90
36132;DHT22;22185;48.738;9.324;2022-10-16T05:29:36;14.10;99.90
36132;DHT22;22185;48.738;9.324;2022-10-16T05:31:38;14.20;99.90
36132;DHT22;22185;48.738;9.324;2022-10-16T05:33:40;14.10;99.90
36132;DHT22;22185;48.738;9.324;2022-10-16T05:35:42;14.20;99.90
36132;DHT22;22185;48.738;9.324;2022-10-16T05:37:45;14.10;99.90
36132;DHT22;22185;48.738;9.324;2022-10-16T05:39:49;14.10;99.90
36132;DHT22;22185;48.738;9.324;2022-10-16T05:41:52;14.10;99.90
36132;DHT22;22185;48.738;9.324;2022-10-16T05:43:54;14.00;99.90
36132;DHT22;22185;48.738;9.324;2022-10-16T05:45:56;14.00;99.90
36132;DHT22;22185;48.738;9.324;2022-10-16T05:47:59;13.90;99.90
36132;DHT22;22185;48.738;9.324;2022-10-16T05:50:01;13.90;99.90
36132;DHT22;22185;48.738;9.324;2022-10-16T05:52:02;13.90;99.90
36132;DHT22;22185;48.738;9.324;2022-10-16T05:54:04;13.90;99.90
36132;DHT22;22185;48.738;9.324;2022-10-16T05:56:09;13.90;99.90
36132;DHT22;22185;48.738;9.324;2022-10-16T05:58:11;14.00;99.90
36132;DHT22;22185;48.738;9.324;2022-10-16T06:00:13;14.00;99.90
36132;DHT22;22185;48.738;9.324;2022-10-16T06:02:15;14.00;99.90
36132;DHT22;22185;48.738;9.324;2022-10-16T06:04:17;13.90;99.90
36132;DHT22;22185;48.738;9.324;2022-10-16T06:06:19;13.90;99.90
36132;DHT22;22185;48.738;9.324;2022-10-16T06:08:22;14.00;99.90
36132;DHT22;22185;48.738;9.324;2022-10-16T06:10:24;13.90;99.90
36132;DHT22;22185;48.738;9.324;2022-10-16T06:12:26;13.90;99.90
36132;DHT22;22185;48.738;9.324;2022-10-16T06:14:28;13.90;99.90
36132;DHT22;22185;48.738;9.324;2022-10-16T06:16:30;14.00;99.90
36132;DHT22;22185;48.738;9.324;2022-10-16T06:18:31;14.00;99.90
36132;DHT22;22185;48.738;9.324;2022-10-16T06:20:33;14.00;99.90
36132;DHT22;22185;48.738;9.324;2022-10-16T06:22:35;14.00;99.90
36132;DHT22;22185;48.738;9.324;2022-10-16T06:24:38;14.10;99.90
36132;DHT22;22185;48.738;9.324;2022-10-16T06:26:46;14.10;99.90
36132;DHT22;22185;48.738;9.324;2022-10-16T06:28:50;14.20;99.90
36132;DHT22;22185;48.738;9.324;2022-10-16T06:30:58;14.20;99.90
36132;DHT22;22185;48.738;9.324;2022-10-16T06:33:07;14.30;99.90
36132;DHT22;22185;48.738;9.324;2022-10-16T06:35:09;14.30;99.90
36132;DHT22;22185;48.738;9.324;2022-10-16T06:37:11;14.30;99.90
36132;DHT22;22185;48.738;9.324;2022-10-16T06:39:14;14.40;99.90
36132;DHT22;22185;48.738;9.324;2022-10-16T06:41:22;14.40;99.90
36132;DHT22;22185;48.738;9.324;2022-10-16T06:43:25;14.50;99.90
36132;DHT22;22185;48.738;9.324;2022-10-16T06:45:27;14.60;99.90
36132;DHT22;22185;48.738;9.324;2022-10-16T06:47:29;14.70;99.90
36132;DHT22;22185;48.738;9.324;2022-10-16T06:49:31;14.70;99.90
36132;DHT22;22185;48.738;9.324;2022-10-16T06:51:32;14.70;99.90
36132;DHT22;22185;48.738;9.324;2022-10-16T06:53:45;14.70;99.90
36132;DHT22;22185;48.738;9.324;2022-10-16T06:56:08;14.70;99.90
36132;DHT22;22185;48.738;9.324;2022-10-16T06:58:10;14.70;99.90
36132;DHT22;22185;48.738;9.324;2022-10-16T07:00:12;14.70;99.90
36132;DHT22;22185;48.738;9.324;2022-10-16T07:02:14;14.80;99.90
36132;DHT22;22185;48.738;9.324;2022-10-16T07:04:16;14.90;99.90
36132;DHT22;22185;48.738;9.324;2022-10-16T07:06:20;14.90;99.90
36132;DHT22;22185;48.738;9.324;2022-10-16T07:08:22;14.90;99.90
36132;DHT22;22185;48.738;9.324;2022-10-16T07:10:26;14.90;99.90
36132;DHT22;22185;48.738;9.324;2022-10-16T07:12:28;15.00;99.90
36132;DHT22;22185;48.738;9.324;2022-10-16T07:14:30;15.00;99.90
36132;DHT22;22185;48.738;9.324;2022-10-16T07:16:32;15.10;99.90
36132;DHT22;22185;48.738;9.324;2022-10-16T07:18:34;15.10;99.90
36132;DHT22;22185;48.738;9.324;2022-10-16T07:20:35;15.10;99.90
36132;DHT22;22185;48.738;9.324;2022-10-16T07:22:38;15.20;99.90
36132;DHT22;22185;48.738;9.324;2022-10-16T07:24:40;15.20;99.90
36132;DHT22;22185;48.738;9.324;2022-10-16T07:26:43;15.20;99.90
36132;DHT22;22185;48.738;9.324;2022-10-16T07:28:45;15.30;99.90
36132;DHT22;22185;48.738;9.324;2022-10-16T07:30:48;15.30;99.90
36132;DHT22;22185;48.738;9.324;2022-10-16T07:32:49;15.30;99.90
36132;DHT22;22185;48.738;9.324;2022-10-16T07:34:51;15.40;99.90
36132;DHT22;22185;48.738;9.324;2022-10-16T07:36:53;15.40;99.90
36132;DHT22;22185;48.738;9.324;2022-10-16T07:38:55;15.40;99.90
36132;DHT22;22185;48.738;9.324;2022-10-16T07:41:03;15.40;99.90
36132;DHT22;22185;48.738;9.324;2022-10-16T07:43:04;15.50;99.90
36132;DHT22;22185;48.738;9.324;2022-10-16T07:45:06;15.50;99.90
36132;DHT22;22185;48.738;9.324;2022-10-16T07:47:09;15.60;99.90
36132;DHT22;22185;48.738;9.324;2022-10-16T07:49:11;15.60;99.90
36132;DHT22;22185;48.738;9.324;2022-10-16T07:51:13;15.60;99.90
36132;DHT22;22185;48.738;9.324;2022-10-16T07:53:15;15.70;99.90
36132;DHT22;22185;48.738;9.324;2022-10-16T07:55:17;15.70;99.90
36132;DHT22;22185;48.738;9.324;2022-10-16T07:57:19;15.70;99.90
36132;DHT22;22185;48.738;9.324;2022-10-16T07:59:23;15.70;99.90
36132;DHT22;22185;48.738;9.324;2022-10-16T08:01:25;15.80;99.90
36132;DHT22;22185;48.738;9.324;2022-10-16T08:03:26;15.80;99.90
36132;DHT22;22185;48.738;9.324;2022-10-16T08:05:28;15.90;99.90
36132;DHT22;22185;48.738;9.324;2022-10-16T08:07:30;15.90;99.90
36132;DHT22;22185;48.738;9.324;2022-10-16T08:09:32;15.90;99.90
36132;DHT22;22185;48.738;9.324;2022-10-16T08:11:33;15.90;99.90
36132;DHT22;22185;48.738;9.324;2022-10-16T08:13:35;16.00;99.90
36132;DHT22;22185;48.738;9.324;2022-10-16T08:15:37;16.10;99.90
36132;DHT22;22185;48.738;9.324;2022-10-16T08:17:41;16.10;99.90
36132;DHT22;22185;48.738;9.324;2022-10-16T08:19:46;16.10;99.90
36132;DHT22;22185;48.738;9.324;2022-10-16T08:21:48;16.20;99.90
36132;DHT22;22185;48.738;9.324;2022-10-16T08:23:50;16.30;99.90
36132;DHT22;22185;48.738;9.324;2022-10-16T08:26:03;16.40;99.90
36132;DHT22;22185;48.738;9.324;2022-10-16T08:28:07;16.30;99.90
36132;DHT22;22185;48.738;9.324;2022-10-16T08:30:09;16.40;99.90
36132;DHT22;22185;48.738;9.324;2022-10-16T08:32:11;16.50;99.90
36132;DHT22;22185;48.738;9.324;2022-10-16T08:34:13;16.50;99.90
36132;DHT22;22185;48.738;9.324;2022-10-16T08:36:16;16.60;99.90
36132;DHT22;22185;48.738;9.324;2022-10-16T08:38:17;16.70;99.90
36132;DHT22;22185;48.738;9.324;2022-10-16T08:40:22;16.80;99.90
36132;DHT22;22185;48.738;9.324;2022-10-16T08:42:29;16.70;99.90
36132;DHT22;22185;48.738;9.324;2022-10-16T08:48:59;16.80;99.90
36132;DHT22;22185;48.738;9.324;2022-10-16T08:51:02;16.90;99.90
36132;DHT22;22185;48.738;9.324;2022-10-16T08:53:05;16.90;99.90
36132;DHT22;22185;48.738;9.324;2022-10-16T08:55:17;16.90;99.90
36132;DHT22;22185;48.738;9.324;2022-10-16T08:57:21;17.00;99.90
36132;DHT22;22185;48.738;9.324;2022-10-16T08:59:25;17.00;99.90
36132;DHT22;22185;48.738;9.324;2022-10-16T09:01:35;17.00;99.90
36132;DHT22;22185;48.738;9.324;2022-10-16T09:14:33;17.50;99.90
36132;DHT22;22185;48.738;9.324;2022-10-16T09:16:40;17.70;99.90
36132;DHT22;22185;48.738;9.324;2022-10-16T09:19:31;17.80;99.90
36132;DHT22;22185;48.738;9.324;2022-10-16T09:23:28;18.00;99.90
36132;DHT22;22185;48.738;9.324;2022-10-16T09:25:30;17.90;99.90
36132;DHT22;22185;48.738;9.324;2022-10-16T09:27:32;18.10;99.90
36132;DHT22;22185;48.738;9.324;2022-10-16T09:29:34;18.20;99.90
36132;DHT22;22185;48.738;9.324;2022-10-16T09:31:36;18.20;99.90
36132;DHT22;22185;48.738;9.324;2022-10-16T09:33:37;18.30;99.90
36132;DHT22;22185;48.738;9.324;2022-10-16T09:37:45;18.60;99.90
36132;DHT22;22185;48.738;9.324;2022-10-16T09:39:51;18.60;99.90
36132;DHT22;22185;48.738;9.324;2022-10-16T09:41:53;18.50;99.90
36132;DHT22;22185;48.738;9.324;2022-10-16T09:43:56;18.60;99.90
36132;DHT22;22185;48.738;9.324;2022-10-16T09:48:12;18.80;99.90
36132;DHT22;22185;48.738;9.324;2022-10-16T09:50:22;19.10;99.90
36132;DHT22;22185;48.738;9.324;2022-10-16T09:52:25;19.30;99.90
36132;DHT22;22185;48.738;9.324;2022-10-16T09:54:27;19.40;99.90
36132;DHT22;22185;48.738;9.324;2022-10-16T09:56:29;19.40;99.90
36132;DHT22;22185;48.738;9.324;2022-10-16T09:58:32;19.40;99.90
36132;DHT22;22185;48.738;9.324;2022-10-16T10:00:34;19.50;99.90
36132;DHT22;22185;48.738;9.324;2022-10-16T10:02:36;19.60;99.90
36132;DHT22;22185;48.738;9.324;2022-10-16T10:04:41;19.90;99.90
36132;DHT22;22185;48.738;9.324;2022-10-16T10:06:46;19.90;99.90
36132;DHT22;22185;48.738;9.324;2022-10-16T10:08:53;19.90;99.90
36132;DHT22;22185;48.738;9.324;2022-10-16T10:10:54;20.30;99.90
36132;DHT22;22185;48.738;9.324;2022-10-16T10:12:56;20.70;99.90
36132;DHT22;22185;48.738;9.324;2022-10-16T10:15:02;20.60;99.90
36132;DHT22;22185;48.738;9.324;2022-10-16T10:19:12;21.30;99.90
36132;DHT22;22185;48.738;9.324;2022-10-16T10:21:14;21.70;99.90
36132;DHT22;22185;48.738;9.324;2022-10-16T10:23:21;21.60;99.90
36132;DHT22;22185;48.738;9.324;2022-10-16T10:29:45;20.90;99.90
36132;DHT22;22185;48.738;9.324;2022-10-16T10:40:03;21.70;99.90
36132;DHT22;22185;48.738;9.324;2022-10-16T10:42:18;21.70;99.90
36132;DHT22;22185;48.738;9.324;2022-10-16T10:44:42;21.70;99.90
36132;DHT22;22185;48.738;9.324;2022-10-16T10:46:54;22.00;99.90
36132;DHT22;22185;48.738;9.324;2022-10-16T10:51:09;21.70;99.90
36132;DHT22;22185;48.738;9.324;2022-10-16T10:53:21;22.10;99.90
36132;DHT22;22185;48.738;9.324;2022-10-16T10:57:28;22.40;99.90
36132;DHT22;22185;48.738;9.324;2022-10-16T11:06:17;23.00;99.90
36132;DHT22;22185;48.738;9.324;2022-10-16T11:08:30;23.20;99.90
36132;DHT22;22185;48.738;9.324;2022-10-16T11:10:53;23.00;99.90
36132;DHT22;22185;48.738;9.324;2022-10-16T11:17:28;23.70;99.90
36132;DHT22;22185;48.738;9.324;2022-10-16T11:21:55;24.00;99.90
36132;DHT22;22185;48.738;9.324;2022-10-16T11:24:09;24.30;99.90
36132;DHT22;22185;48.738;9.324;2022-10-16T11:26:18;24.50;99.90
36132;DHT22;22185;48.738;9.324;2022-10-16T11:28:29;24.70;99.90
36132;DHT22;22185;48.738;9.324;2022-10-16T11:30:39;25.00;99.90
36132;DHT22;22185;48.738;9.324;2022-10-16T11:35:11;24.40;99.90
36132;DHT22;22185;48.738;9.324;2022-10-16T11:37:25;24.00;99.90
36132;DHT22;22185;48.738;9.324;2022-10-16T11:39:29;24.10;99.90
36132;DHT22;22185;48.738;9.324;2022-10-16T11:41:35;24.50;99.90
36132;DHT22;22185;48.738;9.324;2022-10-16T11:43:41;25.00;99.90
36132;DHT22;22185;48.738;9.324;2022-10-16T11:45:54;25.30;99.90
36132;DHT22;22185;48.738;9.324;2022-10-16T11:50:02;25.10;99.90
36132;DHT22;22185;48.738;9.324;2022-10-16T11:54:14;24.50;99.90
36132;DHT22;22185;48.738;9.324;2022-10-16T11:56:20;24.30;99.90
36132;DHT22;22185;48.738;9.324;2022-10-16T12:00:25;24.10;99.90
36132;DHT22;22185;48.738;9.324;2022-10-16T12:04:43;25.00;99.90
36132;DHT22;22185;48.738;9.324;2022-10-16T12:06:48;25.90;99.90
36132;DHT22;22185;48.738;9.324;2022-10-16T12:08:52;25.80;99.90
36132;DHT22;22185;48.738;9.324;2022-10-16T12:11:05;26.40;99.90
36132;DHT22;22185;48.738;9.324;2022-10-16T12:15:34;26.20;99.90
36132;DHT22;22185;48.738;9.324;2022-10-16T12:17:59;27.10;99.90
36132;DHT22;22185;48.738;9.324;2022-10-16T12:20:18;28.70;99.90
36132;DHT22;22185;48.738;9.324;2022-10-16T12:22:21;30.00;99.90
36132;DHT22;22185;48.738;9.324;2022-10-16T12:26:44;29.40;99.90
36132;DHT22;22185;48.738;9.324;2022-10-16T12:28:46;27.50;99.90
36132;DHT22;22185;48.738;9.324;2022-10-16T12:30:57;29.00;99.90
36132;DHT22;22185;48.738;9.324;2022-10-16T12:33:15;30.00;99.90
36132;DHT22;22185;48.738;9.324;2022-10-16T12:35:28;29.70;99.90
36132;DHT22;22185;48.738;9.324;2022-10-16T12:37:32;28.30;99.90
36132;DHT22;22185;48.738;9.324;2022-10-16T12:39:34;27.90;99.90
36132;DHT22;22185;48.738;9.324;2022-10-16T12:41:38;28.10;99.90
36132;DHT22;22185;48.738;9.324;2022-10-16T12:43:42;27.40;99.90
36132;DHT22;22185;48.738;9.324;2022-10-16T12:45:44;26.60;99.90
36132;DHT22;22185;48.738;9.324;2022-10-16T12:47:50;26.10;99.90
36132;DHT22;22185;48.738;9.324;2022-10-16T12:49:53;25.70;99.90
36132;DHT22;22185;48.738;9.324;2022-10-16T12:51:55;25.80;99.90
36132;DHT22;22185;48.738;9.324;2022-10-16T12:54:16;27.50;99.90
36132;DHT22;22185;48.738;9.324;2022-10-16T12:58:48;27.20;99.90
36132;DHT22;22185;48.738;9.324;2022-10-16T13:01:06;26.30;99.90
36132;DHT22;22185;48.738;9.324;2022-10-16T13:05:32;25.00;99.90
36132;DHT22;22185;48.738;9.324;2022-10-16T13:12:12;24.00;99.90
36132;DHT22;22185;48.738;9.324;2022-10-16T13:20:55;23.80;99.90
36132;DHT22;22185;48.738;9.324;2022-10-16T13:29:30;25.10;99.90
36132;DHT22;22185;48.738;9.324;2022-10-16T13:31:33;25.20;99.90
36132;DHT22;22185;48.738;9.324;2022-10-16T13:33:39;25.00;99.90
36132;DHT22;22185;48.738;9.324;2022-10-16T13:35:49;25.00;99.90
36132;DHT22;22185;48.738;9.324;2022-10-16T13:37:51;25.30;99.90
36132;DHT22;22185;48.738;9.324;2022-10-16T13:40:02;25.30;99.90
36132;DHT22;22185;48.738;9.324;2022-10-16T13:42:05;25.20;99.90
36132;DHT22;22185;48.738;9.324;2022-10-16T13:44:12;25.00;99.90
36132;DHT22;22185;48.738;9.324;2022-10-16T13:46:15;24.70;99.90
36132;DHT22;22185;48.738;9.324;2022-10-16T13:48:17;24.90;99.90
36132;DHT22;22185;48.738;9.324;2022-10-16T13:50:19;25.10;99.90
36132;DHT22;22185;48.738;9.324;2022-10-16T13:52:21;25.20;99.90
36132;DHT22;22185;48.738;9.324;2022-10-16T13:54:23;25.00;99.90
36132;DHT22;22185;48.738;9.324;2022-10-16T13:56:26;24.80;99.90
36132;DHT22;22185;48.738;9.324;2022-10-16T13:58:28;24.50;99.90
36132;DHT22;22185;48.738;9.324;2022-10-16T14:00:30;24.30;99.90
36132;DHT22;22185;48.738;9.324;2022-10-16T14:04:37;23.70;99.90
36132;DHT22;22185;48.738;9.324;2022-10-16T14:06:40;23.60;99.90
36132;DHT22;22185;48.738;9.324;2022-10-16T14:08:43;23.30;99.90
36132;DHT22;22185;48.738;9.324;2022-10-16T14:10:50;23.40;99.90
36132;DHT22;22185;48.738;9.324;2022-10-16T14:12:59;23.50;99.90
36132;DHT22;22185;48.738;9.324;2022-10-16T14:15:02;23.50;99.90
36132;DHT22;22185;48.738;9.324;2022-10-16T14:17:03;23.40;99.90
36132;DHT22;22185;48.738;9.324;2022-10-16T14:19:05;23.10;99.90
36132;DHT22;22185;48.738;9.324;2022-10-16T14:21:11;22.90;99.90
36132;DHT22;22185;48.738;9.324;2022-10-16T14:23:23;22.80;99.90
36132;DHT22;22185;48.738;9.324;2022-10-16T14:25:30;22.60;99.90
36132;DHT22;22185;48.738;9.324;2022-10-16T14:27:33;22.50;99.90
36132;DHT22;22185;48.738;9.324;2022-10-16T14:29:35;22.40;99.90
36132;DHT22;22185;48.738;9.324;2022-10-16T14:31:36;22.30;99.90
36132;DHT22;22185;48.738;9.324;2022-10-16T14:33:38;22.40;99.90
36132;DHT22;22185;48.738;9.324;2022-10-16T14:35:40;22.40;99.90
36132;DHT22;22185;48.738;9.324;2022-10-16T14:37:42;22.40;99.90
36132;DHT22;22185;48.738;9.324;2022-10-16T14:39:48;22.30;99.90
36132;DHT22;22185;48.738;9.324;2022-10-16T14:41:51;22.30;99.90
36132;DHT22;22185;48.738;9.324;2022-10-16T14:43:54;22.30;99.90
36132;DHT22;22185;48.738;9.324;2022-10-16T14:45:56;22.30;99.90
36132;DHT22;22185;48.738;9.324;2022-10-16T14:47:59;22.20;99.90
36132;DHT22;22185;48.738;9.324;2022-10-16T14:50:01;22.20;99.90